createdAt,value
2018-02-07T00:01:13.334Z,8.15
2018-02-07T00:03:40.798Z,9.05
2018-02-07T00:06:08.265Z,7.85
2018-02-07T00:08:35.753Z,8.30
2018-02-07T00:11:03.222Z,8.40
2018-02-07T00:13:30.708Z,8.45
2018-02-07T00:15:58.194Z,7.37
2018-02-07T00:18:25.681Z,8.40
2018-02-07T00:20:53.153Z,9.88
2018-02-07T00:23:20.636Z,8.43
2018-02-07T00:25:48.865Z,8.77
2018-02-07T00:28:17.133Z,8.32
2018-02-07T00:30:44.599Z,8.50
2018-02-07T00:33:12.093Z,9.13
2018-02-07T00:35:39.561Z,7.87
2018-02-07T00:38:07.134Z,7.65
2018-02-07T00:40:34.593Z,8.13
2018-02-07T00:43:02.049Z,8.03
2018-02-07T00:45:29.543Z,7.82
2018-02-07T00:47:57.793Z,6.72
2018-02-07T00:50:25.282Z,7.82
2018-02-07T00:52:52.749Z,8.20
2018-02-07T00:55:20.265Z,9.23
2018-02-07T00:57:47.745Z,8.77
2018-02-07T01:00:16.007Z,8.70
2018-02-07T01:02:43.493Z,8.95
2018-02-07T01:05:11.723Z,8.55
2018-02-07T01:07:39.199Z,9.15
2018-02-07T01:10:06.702Z,9.32
2018-02-07T01:12:34.186Z,7.53
2018-02-07T01:15:01.651Z,8.38
2018-02-07T01:17:29.140Z,7.57
2018-02-07T01:19:56.633Z,7.25
2018-02-07T01:22:24.097Z,8.10
2018-02-07T01:24:51.585Z,8.13
2018-02-07T01:27:19.053Z,8.70
2018-02-07T01:29:46.541Z,8.38
2018-02-07T01:32:14.798Z,7.57
2018-02-07T01:34:42.298Z,7.87
2018-02-07T01:37:09.794Z,7.43
2018-02-07T01:39:37.257Z,8.70
2018-02-07T01:42:04.758Z,8.85
2018-02-07T01:44:32.991Z,8.73
2018-02-07T01:47:00.453Z,7.85
2018-02-07T01:49:27.946Z,9.40
2018-02-07T01:51:55.467Z,8.50
2018-02-07T01:54:22.889Z,10.23
2018-02-07T01:56:50.378Z,9.35
2018-02-07T01:59:17.865Z,8.50
2018-02-07T02:01:45.325Z,9.00
2018-02-07T02:04:12.829Z,9.10
2018-02-07T02:06:40.307Z,9.23
2018-02-07T02:09:07.777Z,9.60
2018-02-07T02:11:35.269Z,8.00
2018-02-07T02:14:02.737Z,8.57
2018-02-07T02:16:30.226Z,8.93
2018-02-07T02:18:57.688Z,9.15
2018-02-07T02:21:25.183Z,9.10
2018-02-07T02:23:52.785Z,9.82
2018-02-07T02:26:20.266Z,9.60
2018-02-07T02:28:47.738Z,7.60
2018-02-07T02:31:15.249Z,8.75
2018-02-07T02:33:43.505Z,9.60
2018-02-07T02:36:22.895Z,8.73
2018-02-07T02:38:50.381Z,8.05
2018-02-07T02:41:17.845Z,9.23
2018-02-07T02:43:45.325Z,8.77
2018-02-07T02:46:12.797Z,10.05
2018-02-07T02:48:40.285Z,10.40
2018-02-07T02:51:07.778Z,9.38
2018-02-07T02:53:35.278Z,10.53
2018-02-07T02:56:03.537Z,10.02
2018-02-07T02:58:31.035Z,9.20
2018-02-07T03:00:58.506Z,10.45
2018-02-07T03:03:25.972Z,9.82
2018-02-07T03:05:53.469Z,10.75
2018-02-07T03:08:20.938Z,9.95
2018-02-07T03:10:48.452Z,9.38
2018-02-07T03:13:16.008Z,9.80
2018-02-07T03:15:43.503Z,10.20
2018-02-07T03:18:10.969Z,10.60
2018-02-07T03:20:38.457Z,10.93
2018-02-07T03:23:05.931Z,10.15
2018-02-07T03:25:33.410Z,11.43
2018-02-07T03:28:00.893Z,10.23
2018-02-07T03:30:28.390Z,9.45
2018-02-07T03:32:55.853Z,9.20
2018-02-07T03:35:23.324Z,10.43
2018-02-07T03:37:50.829Z,6.68
2018-02-07T03:40:18.301Z,11.32
2018-02-07T03:42:45.764Z,10.77
2018-02-07T03:45:13.248Z,9.73
2018-02-07T03:47:40.736Z,10.77
2018-02-07T03:50:08.202Z,9.68
2018-02-07T03:52:35.693Z,11.05
2018-02-07T03:55:03.954Z,10.05
2018-02-07T03:57:31.414Z,9.13
2018-02-07T03:59:58.889Z,10.85
2018-02-07T04:02:27.165Z,11.02
2018-02-07T04:04:55.416Z,11.27
2018-02-07T04:07:22.910Z,10.20
2018-02-07T04:09:51.150Z,10.23
2018-02-07T04:12:18.606Z,11.77
2018-02-07T04:14:46.090Z,11.12
2018-02-07T04:17:14.321Z,10.88
2018-02-07T04:19:42.583Z,10.27
2018-02-07T04:22:10.069Z,9.55
2018-02-07T04:24:37.529Z,9.85
2018-02-07T04:27:05.020Z,11.55
2018-02-07T04:29:33.313Z,10.30
2018-02-07T04:32:00.814Z,9.95
2018-02-07T04:34:28.509Z,10.65
2018-02-07T04:36:55.994Z,10.40
2018-02-07T04:39:23.468Z,12.95
2018-02-07T04:41:50.957Z,10.88
2018-02-07T04:44:18.679Z,10.05
2018-02-07T04:46:47.253Z,10.18
2018-02-07T04:49:14.717Z,11.12
2018-02-07T04:51:42.218Z,11.95
2018-02-07T04:54:09.684Z,9.65
2018-02-07T04:56:37.141Z,11.20
2018-02-07T04:59:04.679Z,10.02
2018-02-07T05:01:32.144Z,9.77
2018-02-07T05:03:59.614Z,10.02
2018-02-07T05:06:27.097Z,11.25
2018-02-07T05:08:54.559Z,10.60
2018-02-07T05:11:22.045Z,13.75
2018-02-07T05:13:50.301Z,11.23
2018-02-07T05:16:17.753Z,11.55
2018-02-07T05:18:45.240Z,11.52
2018-02-07T05:21:12.745Z,10.35
2018-02-07T05:23:40.208Z,10.30
2018-02-07T05:26:07.680Z,10.27
2018-02-07T05:28:35.191Z,10.45
2018-02-07T05:31:02.669Z,9.70
2018-02-07T05:33:30.154Z,11.50
2018-02-07T05:35:57.630Z,12.55
2018-02-07T05:38:25.305Z,12.18
2018-02-07T05:40:52.763Z,12.52
2018-02-07T05:43:21.023Z,11.77
2018-02-07T05:45:48.487Z,12.50
2018-02-07T05:48:15.989Z,13.27
2018-02-07T05:50:43.453Z,11.70
2018-02-07T05:53:10.921Z,12.40
2018-02-07T05:55:38.404Z,11.00
2018-02-07T05:58:05.869Z,11.80
2018-02-07T06:00:33.378Z,13.68
2018-02-07T06:03:00.853Z,13.60
2018-02-07T06:05:28.313Z,13.27
2018-02-07T06:07:55.801Z,13.07
2018-02-07T06:10:23.292Z,13.07
2018-02-07T06:12:50.763Z,11.12
2018-02-07T06:15:18.289Z,15.25
2018-02-07T06:17:46.552Z,12.02
2018-02-07T06:20:14.033Z,12.55
2018-02-07T06:22:42.265Z,11.82
2018-02-07T06:25:09.749Z,12.75
2018-02-07T06:27:37.267Z,12.18
2018-02-07T06:30:04.769Z,12.60
2018-02-07T06:32:32.744Z,12.48
2018-02-07T06:35:01.628Z,13.20
2018-02-07T06:37:29.493Z,13.90
2018-02-07T06:39:57.204Z,13.13
2018-02-07T06:42:24.729Z,12.48
2018-02-07T06:44:52.226Z,13.70
2018-02-07T06:47:19.713Z,13.77
2018-02-07T06:49:48.093Z,13.68
2018-02-07T06:52:15.565Z,13.23
2018-02-07T06:54:43.077Z,14.32
2018-02-07T06:57:10.562Z,12.95
2018-02-07T06:59:38.037Z,13.65
2018-02-07T07:02:05.536Z,13.73
2018-02-07T07:04:33.028Z,13.23
2018-02-07T07:07:00.532Z,12.55
2018-02-07T07:09:27.997Z,13.60
2018-02-07T07:11:55.461Z,13.93
2018-02-07T07:14:22.970Z,15.55
2018-02-07T07:16:50.457Z,11.93
2018-02-07T07:19:17.933Z,13.23
2018-02-07T07:21:46.201Z,13.05
2018-02-07T07:24:14.441Z,9.88
2018-02-07T07:26:41.933Z,13.10
2018-02-07T07:29:09.405Z,13.00
2018-02-07T07:31:37.666Z,13.55
2018-02-07T07:34:05.133Z,13.90
2018-02-07T07:36:33.366Z,14.02
2018-02-07T07:39:01.618Z,14.15
2018-02-07T07:41:29.201Z,11.50
2018-02-07T07:43:56.661Z,13.30
2018-02-07T07:46:24.153Z,13.02
2018-02-07T07:48:51.622Z,13.02
2018-02-07T07:51:19.081Z,14.05
2018-02-07T07:53:47.353Z,13.45
2018-02-07T07:56:14.809Z,14.32
2018-02-07T07:58:43.052Z,13.52
2018-02-07T08:01:10.533Z,13.15
2018-02-07T08:03:38.001Z,12.95
2018-02-07T08:06:05.491Z,13.80
2018-02-07T08:08:32.961Z,13.65
2018-02-07T08:11:00.512Z,12.65
2018-02-07T08:13:28.710Z,12.20
2018-02-07T08:15:56.205Z,13.68
2018-02-07T08:18:23.694Z,13.70
2018-02-07T08:20:51.201Z,12.02
2018-02-07T08:23:18.666Z,13.38
2018-02-07T08:25:46.152Z,11.35
2018-02-07T08:28:13.649Z,13.15
2018-02-07T08:30:41.108Z,13.95
2018-02-07T08:33:08.614Z,13.52
2018-02-07T08:35:36.082Z,10.15
2018-02-07T08:38:04.318Z,12.20
2018-02-07T08:40:32.561Z,12.88
2018-02-07T08:43:00.033Z,13.50
2018-02-07T08:45:27.531Z,11.40
2018-02-07T08:47:55.022Z,12.20
2018-02-07T08:50:23.286Z,12.90
2018-02-07T08:52:51.552Z,12.05
2018-02-07T08:55:19.035Z,11.15
2018-02-07T08:57:47.301Z,11.00
2018-02-07T09:00:15.661Z,10.60
2018-02-07T09:02:43.017Z,11.88
2018-02-07T09:05:10.520Z,12.50
2018-02-07T09:07:38.234Z,11.88
2018-02-07T09:10:05.706Z,11.35
2018-02-07T09:12:33.998Z,12.00
2018-02-07T09:15:01.470Z,12.10
2018-02-07T09:17:28.961Z,10.30
2018-02-07T09:19:56.432Z,12.25
2018-02-07T09:22:23.925Z,10.70
2018-02-07T09:24:52.182Z,11.35
2018-02-07T09:27:19.649Z,10.73
2018-02-07T09:29:47.146Z,11.43
2018-02-07T09:32:14.613Z,11.57
2018-02-07T09:34:42.113Z,12.15
2018-02-07T09:37:09.581Z,12.15
2018-02-07T09:39:37.425Z,9.68
2018-02-07T09:42:04.929Z,11.50
2018-02-07T09:44:32.423Z,12.95
2018-02-07T09:46:59.932Z,12.25
2018-02-07T09:49:27.393Z,9.80
2018-02-07T09:51:55.622Z,10.48
2018-02-07T09:54:23.117Z,11.77
2018-02-07T09:56:50.610Z,11.23
2018-02-07T09:59:18.118Z,10.40
2018-02-07T10:01:45.616Z,10.23
2018-02-07T10:04:13.106Z,8.32
2018-02-07T10:06:40.589Z,11.57
2018-02-07T10:09:08.142Z,10.15
2018-02-07T10:11:35.616Z,9.70
2018-02-07T10:14:03.100Z,10.70
2018-02-07T10:16:30.561Z,12.03
2018-02-07T10:18:58.046Z,9.40
2018-02-07T10:21:25.515Z,10.60
2018-02-07T10:23:53.006Z,8.50
2018-02-07T10:26:20.466Z,11.70
2018-02-07T10:28:47.946Z,10.00
2018-02-07T10:31:15.432Z,9.93
2018-02-07T10:33:42.909Z,7.07
2018-02-07T10:36:10.401Z,9.30
2018-02-07T10:38:38.024Z,9.30
2018-02-07T10:41:05.494Z,8.57
2018-02-07T10:43:32.978Z,9.40
2018-02-07T10:46:00.437Z,10.97
2018-02-07T10:48:27.926Z,8.60
2018-02-07T10:50:55.430Z,10.70
2018-02-07T10:53:22.896Z,11.10
2018-02-07T10:55:50.355Z,10.53
2018-02-07T10:58:17.839Z,10.80
2018-02-07T11:00:45.318Z,7.70
2018-02-07T11:03:13.735Z,9.40
2018-02-07T11:05:41.209Z,6.90
2018-02-07T11:08:09.574Z,7.20
2018-02-07T11:10:37.048Z,8.70
2018-02-07T11:13:04.528Z,6.23
2018-02-07T11:15:32.001Z,7.50
2018-02-07T11:17:59.457Z,7.57
2018-02-07T11:20:26.937Z,7.13
2018-02-07T11:22:55.181Z,7.77
2018-02-07T11:25:22.641Z,8.97
2018-02-07T11:27:50.137Z,9.03
2018-02-07T11:30:17.684Z,6.87
2018-02-07T11:32:45.905Z,8.40
2018-02-07T11:35:13.380Z,7.27
2018-02-07T11:37:40.860Z,7.53
2018-02-07T11:40:08.325Z,8.53
2018-02-07T11:42:36.573Z,8.00
2018-02-07T11:45:04.069Z,8.00
2018-02-07T11:47:32.368Z,8.13
2018-02-07T11:49:59.789Z,7.53
2018-02-07T11:52:27.254Z,8.80
2018-02-07T11:54:54.733Z,9.07
2018-02-07T11:57:22.197Z,7.80
2018-02-07T11:59:49.690Z,9.57
2018-02-07T12:02:17.147Z,9.33
2018-02-07T12:04:44.650Z,6.47
2018-02-07T12:07:12.118Z,7.63
2018-02-07T12:09:39.598Z,3.77
2018-02-07T12:12:07.045Z,6.97
2018-02-07T12:14:34.526Z,8.80
2018-02-07T12:17:01.985Z,8.90
2018-02-07T12:19:29.485Z,8.17
2018-02-07T12:21:56.940Z,9.20
2018-02-07T12:24:24.389Z,7.40
2018-02-07T12:26:51.893Z,7.73
2018-02-07T12:29:19.353Z,8.60
2018-02-07T12:31:46.837Z,7.97
2018-02-07T12:34:14.321Z,3.83
2018-02-07T12:36:41.817Z,8.37
2018-02-07T12:39:09.309Z,9.67
2018-02-07T12:41:36.765Z,7.80
2018-02-07T12:44:04.233Z,7.13
2018-02-07T12:46:31.689Z,7.80
2018-02-07T12:48:59.169Z,6.50
2018-02-07T12:51:27.415Z,3.60
2018-02-07T12:53:54.881Z,6.73
2018-02-07T12:56:22.381Z,7.13
2018-02-07T12:58:49.898Z,5.13
2018-02-07T13:01:17.353Z,8.53
2018-02-07T13:03:44.815Z,9.37
2018-02-07T13:06:13.134Z,7.17
2018-02-07T13:08:40.609Z,9.20
2018-02-07T13:11:08.858Z,9.50
2018-02-07T13:13:36.330Z,6.57
2018-02-07T13:16:03.809Z,8.47
2018-02-07T13:18:31.279Z,7.37
2018-02-07T13:20:58.733Z,9.27
2018-02-07T13:23:26.212Z,8.93
2018-02-07T13:25:53.685Z,7.77
2018-02-07T13:28:21.214Z,8.70
2018-02-07T13:30:48.717Z,3.47
2018-02-07T13:33:16.193Z,7.60
2018-02-07T13:35:43.645Z,8.23
2018-02-07T13:38:11.137Z,8.50
2018-02-07T13:40:38.622Z,8.40
2018-02-07T13:43:06.081Z,8.60
2018-02-07T13:45:33.559Z,7.60
2018-02-07T13:48:01.015Z,7.90
2018-02-07T13:50:28.496Z,7.10
2018-02-07T13:52:55.957Z,7.10
2018-02-07T13:55:23.441Z,7.57
2018-02-07T13:57:51.653Z,5.23
2018-02-07T14:00:19.138Z,6.70
2018-02-07T14:02:46.619Z,6.90
2018-02-07T14:05:14.107Z,7.27
2018-02-07T14:07:41.582Z,6.90
2018-02-07T14:10:09.138Z,7.70
2018-02-07T14:12:36.609Z,7.00
2018-02-07T14:15:04.061Z,9.07
2018-02-07T14:17:31.556Z,7.50
2018-02-07T14:19:59.041Z,8.07
2018-02-07T14:22:27.297Z,9.57
2018-02-07T14:24:54.757Z,9.07
2018-02-07T14:27:22.221Z,9.53
2018-02-07T14:29:49.703Z,8.97
2018-02-07T14:32:17.965Z,8.23
2018-02-07T14:34:46.218Z,8.33
2018-02-07T14:37:13.682Z,9.10
2018-02-07T14:39:41.173Z,8.33
2018-02-07T14:42:09.397Z,8.80
2018-02-07T14:44:36.870Z,9.07
2018-02-07T14:47:04.350Z,7.63
2018-02-07T14:49:32.634Z,7.60
2018-02-07T14:52:00.890Z,8.53
2018-02-07T14:54:28.349Z,7.80
2018-02-07T14:56:55.832Z,8.10
2018-02-07T14:59:24.073Z,8.37
2018-02-07T15:01:51.557Z,7.67
2018-02-07T15:04:19.832Z,7.90
2018-02-07T15:06:48.048Z,7.10
2018-02-07T15:09:15.521Z,7.50
2018-02-07T15:11:43.018Z,6.47
2018-02-07T15:14:10.510Z,10.00
2018-02-07T15:16:37.986Z,7.00
2018-02-07T15:19:05.446Z,6.87
2018-02-07T15:21:32.938Z,6.97
2018-02-07T15:24:00.397Z,8.07
2018-02-07T15:26:27.872Z,6.33
2018-02-07T15:28:55.362Z,6.60
2018-02-07T15:31:22.816Z,7.70
2018-02-07T15:33:50.285Z,6.57
2018-02-07T15:36:17.740Z,6.33
2018-02-07T15:38:45.404Z,5.97
2018-02-07T15:41:12.893Z,6.50
2018-02-07T15:43:40.524Z,7.33
2018-02-07T15:46:08.017Z,6.57
2018-02-07T15:48:35.525Z,6.77
2018-02-07T15:51:03.033Z,6.10
2018-02-07T15:53:30.492Z,8.23
2018-02-07T15:55:57.969Z,7.33
2018-02-07T15:58:25.434Z,7.03
2018-02-07T16:00:52.910Z,7.20
2018-02-07T16:03:20.377Z,7.67
2018-02-07T16:05:47.837Z,7.13
2018-02-07T16:08:15.317Z,6.00
2018-02-07T16:10:42.773Z,6.30
2018-02-07T16:13:10.261Z,7.27
2018-02-07T16:15:37.729Z,6.40
2018-02-07T16:18:05.214Z,9.47
2018-02-07T16:20:32.668Z,7.70
2018-02-07T16:23:00.161Z,7.50
2018-02-07T16:25:27.621Z,6.47
2018-02-07T16:27:55.109Z,5.90
2018-02-07T16:30:22.602Z,7.03
2018-02-07T16:32:50.826Z,6.70
2018-02-07T16:35:18.314Z,6.73
2018-02-07T16:37:45.793Z,6.60
2018-02-07T16:40:14.106Z,6.03
2018-02-07T16:42:41.610Z,6.63
2018-02-07T16:45:09.085Z,6.87
2018-02-07T16:47:36.555Z,6.37
2018-02-07T16:50:04.061Z,7.17
2018-02-07T16:52:31.521Z,8.30
2018-02-07T16:54:59.737Z,8.43
2018-02-07T16:57:27.213Z,7.80
2018-02-07T16:59:54.718Z,7.47
2018-02-07T17:02:22.177Z,8.27
2018-02-07T17:04:49.640Z,9.60
2018-02-07T17:07:17.130Z,8.13
2018-02-07T17:09:45.412Z,7.23
2018-02-07T17:12:13.641Z,7.43
2018-02-07T17:14:41.925Z,7.10
2018-02-07T17:17:09.385Z,7.63
2018-02-07T17:19:36.850Z,7.70
2018-02-07T17:22:04.337Z,8.10
2018-02-07T17:24:32.559Z,8.53
2018-02-07T17:27:00.041Z,7.40
2018-02-07T17:29:27.497Z,9.80
2018-02-07T17:31:55.802Z,9.50
2018-02-07T17:34:24.029Z,9.10
2018-02-07T17:36:51.546Z,9.63
2018-02-07T17:39:19.816Z,9.27
2018-02-07T17:41:48.082Z,8.47
2018-02-07T17:44:15.537Z,10.30
2018-02-07T17:46:42.994Z,9.97
2018-02-07T17:49:10.473Z,8.00
2018-02-07T17:51:38.689Z,24.20
2018-02-07T17:54:06.161Z,8.17
2018-02-07T17:56:33.621Z,8.90
2018-02-07T17:59:01.119Z,7.97
2018-02-07T18:01:29.344Z,9.60
2018-02-07T18:03:56.814Z,11.40
2018-02-07T18:06:24.293Z,8.40
2018-02-07T18:08:51.785Z,8.77
2018-02-07T18:11:19.270Z,8.70
2018-02-07T18:13:46.734Z,10.37
2018-02-07T18:16:14.189Z,14.00
2018-02-07T18:18:41.680Z,13.60
2018-02-07T18:21:09.140Z,12.50
2018-02-07T18:23:36.592Z,10.97
2018-02-07T18:26:04.076Z,10.83
2018-02-07T18:28:32.302Z,15.90
2018-02-07T18:30:59.800Z,13.43
2018-02-07T18:33:27.267Z,15.13
2018-02-07T18:35:56.615Z,10.57
2018-02-07T18:38:24.356Z,9.10
2018-02-07T18:40:51.809Z,9.40
2018-02-07T18:43:19.324Z,10.57
2018-02-07T18:45:46.782Z,12.10
2018-02-07T18:48:14.259Z,16.60
2018-02-07T18:50:41.744Z,13.17
2018-02-07T18:53:09.237Z,13.73
2018-02-07T18:55:37.489Z,13.37
2018-02-07T18:58:04.983Z,13.20
2018-02-07T19:00:32.446Z,13.87
2018-02-07T19:02:59.941Z,12.93
2018-02-07T19:05:28.170Z,12.97
2018-02-07T19:07:55.690Z,12.70
2018-02-07T19:10:23.141Z,13.60
2018-02-07T19:12:51.398Z,12.67
2018-02-07T19:15:18.860Z,12.40
2018-02-07T19:17:47.113Z,12.47
2018-02-07T19:20:14.579Z,19.83
2018-02-07T19:22:42.210Z,19.23
2018-02-07T19:25:09.811Z,19.30
2018-02-07T19:27:37.294Z,19.10
2018-02-07T19:30:04.857Z,19.30
2018-02-07T19:32:33.722Z,14.57
2018-02-07T19:35:01.194Z,11.37
2018-02-07T19:37:29.452Z,12.60
2018-02-07T19:39:56.914Z,18.67
2018-02-07T19:42:24.587Z,14.87
2018-02-07T19:44:52.844Z,13.43
2018-02-07T19:47:20.553Z,17.30
2018-02-07T19:49:48.125Z,17.87
2018-02-07T19:52:15.989Z,16.70
2018-02-07T19:54:43.521Z,18.50
2018-02-07T19:57:11.740Z,18.37
2018-02-07T19:59:39.275Z,16.37
2018-02-07T20:02:06.823Z,16.77
2018-02-07T20:04:34.301Z,15.70
2018-02-07T20:07:01.772Z,19.17
2018-02-07T20:09:29.266Z,26.03
2018-02-07T20:11:56.872Z,18.25
2018-02-07T20:14:24.504Z,17.57
2018-02-07T20:16:52.021Z,15.10
2018-02-07T20:19:19.484Z,15.03
2018-02-07T20:21:47.124Z,14.83
2018-02-07T20:24:14.708Z,15.10
2018-02-07T20:26:42.323Z,15.10
2018-02-07T20:29:10.096Z,14.35
2018-02-07T20:31:37.599Z,16.23
2018-02-07T20:34:05.867Z,15.77
2018-02-07T20:36:33.353Z,15.43
2018-02-07T20:39:00.854Z,16.40
2018-02-07T20:41:28.413Z,13.23
2018-02-07T20:43:56.051Z,13.03
2018-02-07T20:46:23.540Z,11.95
2018-02-07T20:48:51.225Z,11.13
2018-02-07T20:51:18.747Z,10.05
2018-02-07T20:53:46.292Z,9.87
2018-02-07T20:56:13.797Z,9.53
2018-02-07T20:58:41.485Z,8.50
2018-02-07T21:01:09.183Z,10.47
2018-02-07T21:03:37.466Z,10.10
2018-02-07T21:06:05.180Z,9.95
2018-02-07T21:08:32.644Z,13.90
2018-02-07T21:11:00.140Z,14.02
2018-02-07T21:13:27.631Z,12.20
2018-02-07T21:15:55.144Z,12.70
2018-02-07T21:18:22.766Z,11.60
2018-02-07T21:20:50.354Z,10.75
2018-02-07T21:23:18.760Z,10.15
2018-02-07T21:25:47.030Z,10.27
2018-02-07T21:28:14.765Z,10.10
2018-02-07T21:30:42.396Z,9.00
2018-02-07T21:33:09.880Z,10.67
2018-02-07T21:35:37.465Z,11.47
2018-02-07T21:38:04.976Z,12.18
2018-02-07T21:40:32.619Z,10.00
2018-02-07T21:43:00.150Z,10.98
2018-02-07T21:45:27.718Z,12.35
2018-02-07T21:47:56.034Z,12.63
2018-02-07T21:50:23.513Z,12.52
2018-02-07T21:52:51.017Z,14.07
2018-02-07T21:55:20.273Z,15.20
2018-02-07T21:57:48.548Z,13.87
2018-02-07T22:00:16.789Z,13.82
2018-02-07T22:02:45.023Z,14.43
2018-02-07T22:05:12.513Z,14.85
2018-02-07T22:07:40.791Z,14.07
2018-02-07T22:10:08.280Z,15.15
2018-02-07T22:12:35.761Z,14.37
2018-02-07T22:15:03.249Z,13.95
2018-02-07T22:17:30.717Z,13.18
2018-02-07T22:19:59.036Z,12.10
2018-02-07T22:22:26.509Z,13.60
2018-02-07T22:24:54.050Z,11.27
2018-02-07T22:27:21.533Z,10.90
2018-02-07T22:29:49.002Z,12.52
2018-02-07T22:32:16.497Z,12.10
2018-02-07T22:34:44.726Z,12.35
2018-02-07T22:37:12.206Z,11.63
2018-02-07T22:39:39.697Z,10.23
2018-02-07T22:42:07.917Z,12.00
2018-02-07T22:44:35.401Z,11.40
2018-02-07T22:47:02.889Z,12.13
2018-02-07T22:49:31.189Z,10.73
2018-02-07T22:51:58.674Z,10.38
2018-02-07T22:54:26.179Z,10.10
2018-02-07T22:56:54.406Z,10.23
2018-02-07T22:59:21.869Z,11.63
2018-02-07T23:01:49.362Z,11.00
2018-02-07T23:04:16.858Z,11.40
2018-02-07T23:06:44.325Z,12.02
2018-02-07T23:09:11.841Z,10.90
2018-02-07T23:11:40.101Z,11.75
2018-02-07T23:14:07.560Z,10.65
2018-02-07T23:16:35.066Z,11.00
2018-02-07T23:19:02.520Z,11.25
2018-02-07T23:21:29.984Z,10.90
2018-02-07T23:23:57.482Z,11.32
2018-02-07T23:26:24.961Z,10.52
2018-02-07T23:28:53.198Z,11.57
2018-02-07T23:31:20.685Z,11.00
2018-02-07T23:33:48.151Z,10.48
2018-02-07T23:36:15.638Z,9.60
2018-02-07T23:38:43.117Z,10.80
2018-02-07T23:41:10.589Z,10.13
2018-02-07T23:43:38.086Z,10.98
2018-02-07T23:46:05.541Z,10.82
2018-02-07T23:48:33.041Z,10.27
2018-02-07T23:51:00.530Z,10.77
2018-02-07T23:53:28.005Z,9.25
2018-02-07T23:55:55.477Z,10.05
2018-02-07T23:58:22.965Z,11.85
